sensor_id;sensor_type;location;lat;lon;timestamp;temperature;humidity
47773;DHT22;33534;51.028;13.716;2024-01-15T00:01:21;18.60;71.80
47773;DHT22;33534;51.028;13.716;2024-01-15T00:03:47;18.60;71.80
47773;DHT22;33534;51.028;13.716;2024-01-15T00:06:12;18.60;71.90
47773;DHT22;33534;51.028;13.716;2024-01-15T00:08:38;18.60;71.90
47773;DHT22;33534;51.028;13.716;2024-01-15T00:11:04;18.60;71.90
47773;DHT22;33534;51.028;13.716;2024-01-15T00:13:30;18.60;71.90
47773;DHT22;33534;51.028;13.716;2024-01-15T00:15:56;18.60;72.00
47773;DHT22;33534;51.028;13.716;2024-01-15T00:18:21;18.60;71.90
47773;DHT22;33534;51.028;13.716;2024-01-15T00:20:47;18.60;72.00
47773;DHT22;33534;51.028;13.716;2024-01-15T00:23:12;18.60;72.30
47773;DHT22;33534;51.028;13.716;2024-01-15T00:25:38;18.60;72.20
47773;DHT22;33534;51.028;13.716;2024-01-15T00:28:04;18.70;72.10
47773;DHT22;33534;51.028;13.716;2024-01-15T00:30:30;18.70;72.00
47773;DHT22;33534;51.028;13.716;2024-01-15T00:32:55;18.60;72.00
47773;DHT22;33534;51.028;13.716;2024-01-15T00:35:21;18.60;72.00
47773;DHT22;33534;51.028;13.716;2024-01-15T00:37:46;18.60;72.00
47773;DHT22;33534;51.028;13.716;2024-01-15T00:40:12;18.60;72.00
47773;DHT22;33534;51.028;13.716;2024-01-15T00:42:38;18.60;72.00
47773;DHT22;33534;51.028;13.716;2024-01-15T00:45:04;18.60;72.00
47773;DHT22;33534;51.028;13.716;2024-01-15T00:47:30;18.60;72.00
47773;DHT22;33534;51.028;13.716;2024-01-15T00:49:56;18.60;72.00
47773;DHT22;33534;51.028;13.716;2024-01-15T00:52:22;18.60;72.00
47773;DHT22;33534;51.028;13.716;2024-01-15T00:54:47;18.60;72.10
47773;DHT22;33534;51.028;13.716;2024-01-15T00:57:13;18.60;72.10
47773;DHT22;33534;51.028;13.716;2024-01-15T00:59:38;18.50;72.10
47773;DHT22;33534;51.028;13.716;2024-01-15T01:02:04;18.60;72.10
47773;DHT22;33534;51.028;13.716;2024-01-15T01:04:30;18.60;72.10
47773;DHT22;33534;51.028;13.716;2024-01-15T01:06:56;18.60;72.20
47773;DHT22;33534;51.028;13.716;2024-01-15T01:09:21;18.60;72.20
47773;DHT22;33534;51.028;13.716;2024-01-15T01:11:47;18.60;72.20
47773;DHT22;33534;51.028;13.716;2024-01-15T01:14:12;18.50;72.20
47773;DHT22;33534;51.028;13.716;2024-01-15T01:16:38;18.60;72.20
47773;DHT22;33534;51.028;13.716;2024-01-15T01:19:05;18.60;72.30
47773;DHT22;33534;51.028;13.716;2024-01-15T01:21:33;18.60;72.30
47773;DHT22;33534;51.028;13.716;2024-01-15T01:23:58;18.60;72.20
47773;DHT22;33534;51.028;13.716;2024-01-15T01:26:24;18.60;72.20
47773;DHT22;33534;51.028;13.716;2024-01-15T01:28:49;18.60;72.10
47773;DHT22;33534;51.028;13.716;2024-01-15T01:31:16;18.60;72.20
47773;DHT22;33534;51.028;13.716;2024-01-15T01:33:42;18.60;72.60
47773;DHT22;33534;51.028;13.716;2024-01-15T01:36:10;18.60;72.90
47773;DHT22;33534;51.028;13.716;2024-01-15T01:38:37;18.60;72.60
47773;DHT22;33534;51.028;13.716;2024-01-15T01:41:03;18.60;72.60
47773;DHT22;33534;51.028;13.716;2024-01-15T01:43:29;18.60;72.20
47773;DHT22;33534;51.028;13.716;2024-01-15T01:45:56;18.60;72.00
47773;DHT22;33534;51.028;13.716;2024-01-15T01:48:22;18.60;72.00
47773;DHT22;33534;51.028;13.716;2024-01-15T01:50:50;18.60;72.00
47773;DHT22;33534;51.028;13.716;2024-01-15T01:53:16;18.60;72.00
47773;DHT22;33534;51.028;13.716;2024-01-15T01:55:42;18.60;72.00
47773;DHT22;33534;51.028;13.716;2024-01-15T01:58:08;18.60;71.90
47773;DHT22;33534;51.028;13.716;2024-01-15T02:00:34;18.60;72.00
47773;DHT22;33534;51.028;13.716;2024-01-15T02:03:00;18.60;71.90
47773;DHT22;33534;51.028;13.716;2024-01-15T02:05:29;18.60;71.90
47773;DHT22;33534;51.028;13.716;2024-01-15T02:07:55;18.60;71.90
47773;DHT22;33534;51.028;13.716;2024-01-15T02:10:21;18.60;71.80
47773;DHT22;33534;51.028;13.716;2024-01-15T02:12:47;18.60;71.80
47773;DHT22;33534;51.028;13.716;2024-01-15T02:15:14;18.60;72.00
47773;DHT22;33534;51.028;13.716;2024-01-15T02:17:59;18.60;71.80
47773;DHT22;33534;51.028;13.716;2024-01-15T02:20:25;18.60;71.80
47773;DHT22;33534;51.028;13.716;2024-01-15T02:22:51;18.60;71.80
47773;DHT22;33534;51.028;13.716;2024-01-15T02:25:18;18.60;71.80
47773;DHT22;33534;51.028;13.716;2024-01-15T02:27:44;18.60;71.70
47773;DHT22;33534;51.028;13.716;2024-01-15T02:30:11;18.60;71.80
47773;DHT22;33534;51.028;13.716;2024-01-15T02:32:37;18.60;71.70
47773;DHT22;33534;51.028;13.716;2024-01-15T02:35:03;18.70;71.80
47773;DHT22;33534;51.028;13.716;2024-01-15T02:37:29;18.60;71.80
47773;DHT22;33534;51.028;13.716;2024-01-15T02:39:54;18.60;71.80
47773;DHT22;33534;51.028;13.716;2024-01-15T02:42:20;18.60;71.80
47773;DHT22;33534;51.028;13.716;2024-01-15T02:44:45;18.60;71.80
47773;DHT22;33534;51.028;13.716;2024-01-15T02:47:11;18.60;71.70
47773;DHT22;33534;51.028;13.716;2024-01-15T02:49:37;18.60;71.80
47773;DHT22;33534;51.028;13.716;2024-01-15T02:52:03;18.60;71.70
47773;DHT22;33534;51.028;13.716;2024-01-15T02:54:28;18.60;71.80
47773;DHT22;33534;51.028;13.716;2024-01-15T02:56:54;18.60;71.90
47773;DHT22;33534;51.028;13.716;2024-01-15T02:59:20;18.60;71.80
47773;DHT22;33534;51.028;13.716;2024-01-15T03:01:45;18.60;71.80
47773;DHT22;33534;51.028;13.716;2024-01-15T03:04:11;18.60;71.80
47773;DHT22;33534;51.028;13.716;2024-01-15T03:06:36;18.60;71.80
47773;DHT22;33534;51.028;13.716;2024-01-15T03:09:02;18.60;71.80
47773;DHT22;33534;51.028;13.716;2024-01-15T03:11:29;18.60;71.80
47773;DHT22;33534;51.028;13.716;2024-01-15T03:13:54;18.60;71.90
47773;DHT22;33534;51.028;13.716;2024-01-15T03:16:20;18.60;71.90
47773;DHT22;33534;51.028;13.716;2024-01-15T03:18:46;18.60;71.90
47773;DHT22;33534;51.028;13.716;2024-01-15T03:21:11;18.60;71.90
47773;DHT22;33534;51.028;13.716;2024-01-15T03:23:37;18.60;71.80
47773;DHT22;33534;51.028;13.716;2024-01-15T03:26:03;18.60;71.80
47773;DHT22;33534;51.028;13.716;2024-01-15T03:28:29;18.60;71.80
47773;DHT22;33534;51.028;13.716;2024-01-15T03:30:55;18.60;71.70
47773;DHT22;33534;51.028;13.716;2024-01-15T03:33:21;18.60;71.70
47773;DHT22;33534;51.028;13.716;2024-01-15T03:35:47;18.60;71.70
47773;DHT22;33534;51.028;13.716;2024-01-15T03:38:12;18.60;71.60
47773;DHT22;33534;51.028;13.716;2024-01-15T03:40:38;18.60;71.70
47773;DHT22;33534;51.028;13.716;2024-01-15T03:43:03;18.60;71.70
47773;DHT22;33534;51.028;13.716;2024-01-15T03:45:29;18.60;71.70
47773;DHT22;33534;51.028;13.716;2024-01-15T03:47:55;18.60;71.70
47773;DHT22;33534;51.028;13.716;2024-01-15T03:50:20;18.60;71.70
47773;DHT22;33534;51.028;13.716;2024-01-15T03:52:58;18.60;71.70
47773;DHT22;33534;51.028;13.716;2024-01-15T03:55:24;18.60;71.70
47773;DHT22;33534;51.028;13.716;2024-01-15T03:57:49;18.60;71.70
47773;DHT22;33534;51.028;13.716;2024-01-15T04:00:15;18.60;71.70
47773;DHT22;33534;51.028;13.716;2024-01-15T04:02:43;18.60;71.70
47773;DHT22;33534;51.028;13.716;2024-01-15T04:05:09;18.60;71.70
47773;DHT22;33534;51.028;13.716;2024-01-15T04:07:35;18.50;71.70
47773;DHT22;33534;51.028;13.716;2024-01-15T04:10:00;18.60;71.70
47773;DHT22;33534;51.028;13.716;2024-01-15T04:12:26;18.50;71.70
47773;DHT22;33534;51.028;13.716;2024-01-15T04:14:52;18.60;71.70
47773;DHT22;33534;51.028;13.716;2024-01-15T04:17:17;18.60;71.70
47773;DHT22;33534;51.028;13.716;2024-01-15T04:19:46;18.50;71.70
47773;DHT22;33534;51.028;13.716;2024-01-15T04:22:13;18.50;71.70
47773;DHT22;33534;51.028;13.716;2024-01-15T04:24:39;18.50;71.70
47773;DHT22;33534;51.028;13.716;2024-01-15T04:27:05;18.60;71.80
47773;DHT22;33534;51.028;13.716;2024-01-15T04:29:31;18.50;71.70
47773;DHT22;33534;51.028;13.716;2024-01-15T04:31:56;18.60;72.00
47773;DHT22;33534;51.028;13.716;2024-01-15T04:34:22;18.60;71.90
47773;DHT22;33534;51.028;13.716;2024-01-15T04:36:47;18.60;71.90
47773;DHT22;33534;51.028;13.716;2024-01-15T04:39:13;18.60;72.00
47773;DHT22;33534;51.028;13.716;2024-01-15T04:41:39;18.60;71.90
47773;DHT22;33534;51.028;13.716;2024-01-15T04:44:04;18.60;71.70
47773;DHT22;33534;51.028;13.716;2024-01-15T04:46:30;18.70;71.70
47773;DHT22;33534;51.028;13.716;2024-01-15T04:48:56;18.60;71.60
47773;DHT22;33534;51.028;13.716;2024-01-15T04:51:21;18.60;71.70
47773;DHT22;33534;51.028;13.716;2024-01-15T04:53:47;18.60;71.60
47773;DHT22;33534;51.028;13.716;2024-01-15T04:56:13;18.60;71.60
47773;DHT22;33534;51.028;13.716;2024-01-15T04:58:38;18.60;71.60
47773;DHT22;33534;51.028;13.716;2024-01-15T05:01:04;18.70;71.60
47773;DHT22;33534;51.028;13.716;2024-01-15T05:03:29;18.60;71.60
47773;DHT22;33534;51.028;13.716;2024-01-15T05:05:55;18.60;71.70
47773;DHT22;33534;51.028;13.716;2024-01-15T05:08:21;18.60;71.60
47773;DHT22;33534;51.028;13.716;2024-01-15T05:10:47;18.60;71.60
47773;DHT22;33534;51.028;13.716;2024-01-15T05:13:13;18.60;71.60
47773;DHT22;33534;51.028;13.716;2024-01-15T05:15:39;18.60;71.60
47773;DHT22;33534;51.028;13.716;2024-01-15T05:18:05;18.60;71.60
47773;DHT22;33534;51.028;13.716;2024-01-15T05:20:30;18.60;71.70
47773;DHT22;33534;51.028;13.716;2024-01-15T05:22:56;18.60;71.70
47773;DHT22;33534;51.028;13.716;2024-01-15T05:25:22;18.60;71.60
47773;DHT22;33534;51.028;13.716;2024-01-15T05:27:48;18.60;71.80
47773;DHT22;33534;51.028;13.716;2024-01-15T05:30:14;18.60;71.70
47773;DHT22;33534;51.028;13.716;2024-01-15T05:32:40;18.60;71.70
47773;DHT22;33534;51.028;13.716;2024-01-15T05:35:06;18.60;71.70
47773;DHT22;33534;51.028;13.716;2024-01-15T05:37:31;18.60;71.70
47773;DHT22;33534;51.028;13.716;2024-01-15T05:39:57;18.60;71.80
47773;DHT22;33534;51.028;13.716;2024-01-15T05:42:23;18.60;71.80
47773;DHT22;33534;51.028;13.716;2024-01-15T05:44:48;18.50;71.80
47773;DHT22;33534;51.028;13.716;2024-01-15T05:47:14;18.50;71.80
47773;DHT22;33534;51.028;13.716;2024-01-15T05:49:40;18.60;71.70
47773;DHT22;33534;51.028;13.716;2024-01-15T05:52:05;18.60;71.70
47773;DHT22;33534;51.028;13.716;2024-01-15T05:54:31;18.50;71.70
47773;DHT22;33534;51.028;13.716;2024-01-15T05:56:57;18.50;71.70
47773;DHT22;33534;51.028;13.716;2024-01-15T05:59:23;18.50;71.60
47773;DHT22;33534;51.028;13.716;2024-01-15T06:01:48;18.50;71.60
47773;DHT22;33534;51.028;13.716;2024-01-15T06:04:14;18.50;71.60
47773;DHT22;33534;51.028;13.716;2024-01-15T06:06:40;18.50;71.60
47773;DHT22;33534;51.028;13.716;2024-01-15T06:09:05;18.60;71.80
47773;DHT22;33534;51.028;13.716;2024-01-15T06:11:34;18.50;72.00
47773;DHT22;33534;51.028;13.716;2024-01-15T06:14:00;18.50;72.00
47773;DHT22;33534;51.028;13.716;2024-01-15T06:16:26;18.50;72.00
47773;DHT22;33534;51.028;13.716;2024-01-15T06:18:52;18.60;72.00
47773;DHT22;33534;51.028;13.716;2024-01-15T06:21:17;18.60;72.10
47773;DHT22;33534;51.028;13.716;2024-01-15T06:23:43;18.50;72.10
47773;DHT22;33534;51.028;13.716;2024-01-15T06:26:08;18.60;72.20
47773;DHT22;33534;51.028;13.716;2024-01-15T06:28:36;18.60;72.50
47773;DHT22;33534;51.028;13.716;2024-01-15T06:31:02;18.60;73.30
47773;DHT22;33534;51.028;13.716;2024-01-15T06:33:27;18.60;73.00
47773;DHT22;33534;51.028;13.716;2024-01-15T06:35:53;18.60;73.50
47773;DHT22;33534;51.028;13.716;2024-01-15T06:38:22;18.70;73.50
47773;DHT22;33534;51.028;13.716;2024-01-15T06:40:48;18.70;73.90
47773;DHT22;33534;51.028;13.716;2024-01-15T06:43:14;18.70;74.00
47773;DHT22;33534;51.028;13.716;2024-01-15T06:45:41;18.70;74.10
47773;DHT22;33534;51.028;13.716;2024-01-15T06:48:07;18.60;74.00
47773;DHT22;33534;51.028;13.716;2024-01-15T06:50:35;18.70;74.00
47773;DHT22;33534;51.028;13.716;2024-01-15T06:53:01;18.70;73.90
47773;DHT22;33534;51.028;13.716;2024-01-15T06:55:26;18.70;73.80
47773;DHT22;33534;51.028;13.716;2024-01-15T06:57:53;18.60;73.70
47773;DHT22;33534;51.028;13.716;2024-01-15T07:00:18;18.60;73.50
47773;DHT22;33534;51.028;13.716;2024-01-15T07:02:45;18.60;73.50
47773;DHT22;33534;51.028;13.716;2024-01-15T07:05:11;18.60;73.40
47773;DHT22;33534;51.028;13.716;2024-01-15T07:07:37;18.60;73.30
47773;DHT22;33534;51.028;13.716;2024-01-15T07:10:11;18.60;73.30
47773;DHT22;33534;51.028;13.716;2024-01-15T07:12:37;18.50;73.40
47773;DHT22;33534;51.028;13.716;2024-01-15T07:15:09;18.60;73.30
47773;DHT22;33534;51.028;13.716;2024-01-15T07:17:35;18.50;73.20
47773;DHT22;33534;51.028;13.716;2024-01-15T07:20:01;18.50;73.00
47773;DHT22;33534;51.028;13.716;2024-01-15T07:22:27;18.50;72.90
47773;DHT22;33534;51.028;13.716;2024-01-15T07:24:53;18.50;72.80
47773;DHT22;33534;51.028;13.716;2024-01-15T07:27:19;18.50;72.80
47773;DHT22;33534;51.028;13.716;2024-01-15T07:29:45;18.50;72.70
47773;DHT22;33534;51.028;13.716;2024-01-15T07:32:11;18.50;72.70
47773;DHT22;33534;51.028;13.716;2024-01-15T07:34:37;18.50;72.70
47773;DHT22;33534;51.028;13.716;2024-01-15T07:37:02;18.50;72.60
47773;DHT22;33534;51.028;13.716;2024-01-15T07:39:29;18.50;72.60
47773;DHT22;33534;51.028;13.716;2024-01-15T07:41:56;18.50;72.60
47773;DHT22;33534;51.028;13.716;2024-01-15T07:44:21;18.50;72.50
47773;DHT22;33534;51.028;13.716;2024-01-15T07:46:47;18.50;72.50
47773;DHT22;33534;51.028;13.716;2024-01-15T07:49:13;18.40;72.40
47773;DHT22;33534;51.028;13.716;2024-01-15T07:51:39;18.40;72.40
47773;DHT22;33534;51.028;13.716;2024-01-15T07:54:06;18.40;72.40
47773;DHT22;33534;51.028;13.716;2024-01-15T07:56:56;18.40;72.30
47773;DHT22;33534;51.028;13.716;2024-01-15T07:59:23;18.40;72.30
47773;DHT22;33534;51.028;13.716;2024-01-15T08:01:51;18.40;72.30
47773;DHT22;33534;51.028;13.716;2024-01-15T08:04:17;18.40;72.20
47773;DHT22;33534;51.028;13.716;2024-01-15T08:06:43;18.40;72.20
47773;DHT22;33534;51.028;13.716;2024-01-15T08:09:09;18.40;72.20
47773;DHT22;33534;51.028;13.716;2024-01-15T08:11:39;18.40;72.20
47773;DHT22;33534;51.028;13.716;2024-01-15T08:14:07;18.40;72.20
47773;DHT22;33534;51.028;13.716;2024-01-15T08:16:32;18.40;72.10
47773;DHT22;33534;51.028;13.716;2024-01-15T08:18:58;18.40;72.10
47773;DHT22;33534;51.028;13.716;2024-01-15T08:21:24;18.40;72.00
47773;DHT22;33534;51.028;13.716;2024-01-15T08:23:50;18.40;72.00
47773;DHT22;33534;51.028;13.716;2024-01-15T08:26:15;18.40;72.00
47773;DHT22;33534;51.028;13.716;2024-01-15T08:28:41;18.40;72.00
47773;DHT22;33534;51.028;13.716;2024-01-15T08:31:07;18.40;72.00
47773;DHT22;33534;51.028;13.716;2024-01-15T08:33:32;18.40;72.00
47773;DHT22;33534;51.028;13.716;2024-01-15T08:35:58;18.40;71.90
47773;DHT22;33534;51.028;13.716;2024-01-15T08:38:24;18.40;71.90
47773;DHT22;33534;51.028;13.716;2024-01-15T08:40:50;18.40;71.90
47773;DHT22;33534;51.028;13.716;2024-01-15T08:43:18;18.40;71.90
47773;DHT22;33534;51.028;13.716;2024-01-15T08:45:44;18.30;71.90
47773;DHT22;33534;51.028;13.716;2024-01-15T08:48:10;18.40;71.90
47773;DHT22;33534;51.028;13.716;2024-01-15T08:50:36;18.40;71.90
47773;DHT22;33534;51.028;13.716;2024-01-15T08:53:01;18.40;71.90
47773;DHT22;33534;51.028;13.716;2024-01-15T08:55:27;18.40;71.90
47773;DHT22;33534;51.028;13.716;2024-01-15T08:57:53;18.30;71.80
47773;DHT22;33534;51.028;13.716;2024-01-15T09:00:18;18.30;71.80
47773;DHT22;33534;51.028;13.716;2024-01-15T09:02:44;18.30;71.80
47773;DHT22;33534;51.028;13.716;2024-01-15T09:05:10;18.40;71.80
47773;DHT22;33534;51.028;13.716;2024-01-15T09:07:36;18.30;71.80
47773;DHT22;33534;51.028;13.716;2024-01-15T09:10:01;18.30;71.80
47773;DHT22;33534;51.028;13.716;2024-01-15T09:12:27;18.30;71.80
47773;DHT22;33534;51.028;13.716;2024-01-15T09:14:53;18.30;71.80
47773;DHT22;33534;51.028;13.716;2024-01-15T09:17:22;18.30;71.80
47773;DHT22;33534;51.028;13.716;2024-01-15T09:19:51;18.40;71.80
47773;DHT22;33534;51.028;13.716;2024-01-15T09:22:16;18.30;71.90
47773;DHT22;33534;51.028;13.716;2024-01-15T09:24:45;18.40;71.90
47773;DHT22;33534;51.028;13.716;2024-01-15T09:27:11;18.40;71.90
47773;DHT22;33534;51.028;13.716;2024-01-15T09:29:37;18.40;71.80
47773;DHT22;33534;51.028;13.716;2024-01-15T09:32:06;18.40;71.80
47773;DHT22;33534;51.028;13.716;2024-01-15T09:34:33;18.40;71.80
47773;DHT22;33534;51.028;13.716;2024-01-15T09:36:59;18.40;71.80
47773;DHT22;33534;51.028;13.716;2024-01-15T09:39:26;18.40;71.80
47773;DHT22;33534;51.028;13.716;2024-01-15T09:41:52;18.40;71.70
47773;DHT22;33534;51.028;13.716;2024-01-15T09:44:21;18.40;71.70
47773;DHT22;33534;51.028;13.716;2024-01-15T09:46:46;18.40;71.60
47773;DHT22;33534;51.028;13.716;2024-01-15T09:49:18;18.40;71.60
47773;DHT22;33534;51.028;13.716;2024-01-15T09:51:44;18.40;71.60
47773;DHT22;33534;51.028;13.716;2024-01-15T09:54:10;18.40;71.70
47773;DHT22;33534;51.028;13.716;2024-01-15T09:56:39;18.40;71.60
47773;DHT22;33534;51.028;13.716;2024-01-15T09:59:05;18.40;71.60
47773;DHT22;33534;51.028;13.716;2024-01-15T10:01:32;18.30;71.60
47773;DHT22;33534;51.028;13.716;2024-01-15T10:03:58;18.40;71.60
47773;DHT22;33534;51.028;13.716;2024-01-15T10:06:27;18.40;71.60
47773;DHT22;33534;51.028;13.716;2024-01-15T10:08:54;18.40;71.50
47773;DHT22;33534;51.028;13.716;2024-01-15T10:11:21;18.30;71.50
47773;DHT22;33534;51.028;13.716;2024-01-15T10:13:47;18.30;71.50
47773;DHT22;33534;51.028;13.716;2024-01-15T10:16:16;18.30;71.50
47773;DHT22;33534;51.028;13.716;2024-01-15T10:18:41;18.30;71.60
47773;DHT22;33534;51.028;13.716;2024-01-15T10:21:07;18.40;71.50
47773;DHT22;33534;51.028;13.716;2024-01-15T10:23:33;18.30;71.50
47773;DHT22;33534;51.028;13.716;2024-01-15T10:26:00;18.40;71.50
47773;DHT22;33534;51.028;13.716;2024-01-15T10:28:29;18.30;71.50
47773;DHT22;33534;51.028;13.716;2024-01-15T10:30:57;18.30;71.50
47773;DHT22;33534;51.028;13.716;2024-01-15T10:33:24;18.30;71.60
47773;DHT22;33534;51.028;13.716;2024-01-15T10:35:57;18.30;71.60
47773;DHT22;33534;51.028;13.716;2024-01-15T10:38:24;18.30;71.40
47773;DHT22;33534;51.028;13.716;2024-01-15T10:40:54;18.40;71.30
47773;DHT22;33534;51.028;13.716;2024-01-15T10:43:20;18.40;71.30
47773;DHT22;33534;51.028;13.716;2024-01-15T10:45:46;18.40;71.50
47773;DHT22;33534;51.028;13.716;2024-01-15T10:48:13;18.40;71.80
47773;DHT22;33534;51.028;13.716;2024-01-15T10:50:39;18.40;72.20
47773;DHT22;33534;51.028;13.716;2024-01-15T10:53:05;18.40;72.20
47773;DHT22;33534;51.028;13.716;2024-01-15T10:55:32;18.40;72.20
47773;DHT22;33534;51.028;13.716;2024-01-15T10:57:59;18.50;72.10
47773;DHT22;33534;51.028;13.716;2024-01-15T11:00:25;18.50;72.10
47773;DHT22;33534;51.028;13.716;2024-01-15T11:02:52;18.50;72.20
47773;DHT22;33534;51.028;13.716;2024-01-15T11:05:21;18.50;72.10
47773;DHT22;33534;51.028;13.716;2024-01-15T11:07:48;18.50;72.00
47773;DHT22;33534;51.028;13.716;2024-01-15T11:13:19;18.50;72.00
47773;DHT22;33534;51.028;13.716;2024-01-15T11:18:20;18.60;72.00
47773;DHT22;33534;51.028;13.716;2024-01-15T11:23:49;18.70;71.90
47773;DHT22;33534;51.028;13.716;2024-01-15T11:26:45;18.60;71.60
47773;DHT22;33534;51.028;13.716;2024-01-15T11:34:21;18.60;71.80
47773;DHT22;33534;51.028;13.716;2024-01-15T11:41:49;18.50;71.90
47773;DHT22;33534;51.028;13.716;2024-01-15T11:44:15;18.50;71.90
47773;DHT22;33534;51.028;13.716;2024-01-15T11:47:06;18.50;72.10
47773;DHT22;33534;51.028;13.716;2024-01-15T11:52:22;18.50;72.40
47773;DHT22;33534;51.028;13.716;2024-01-15T11:57:51;18.50;72.60
47773;DHT22;33534;51.028;13.716;2024-01-15T12:00:18;18.50;72.70
47773;DHT22;33534;51.028;13.716;2024-01-15T12:02:46;18.50;72.70
47773;DHT22;33534;51.028;13.716;2024-01-15T12:05:13;18.60;73.00
47773;DHT22;33534;51.028;13.716;2024-01-15T12:07:40;18.60;73.30
47773;DHT22;33534;51.028;13.716;2024-01-15T12:10:13;18.60;73.80
47773;DHT22;33534;51.028;13.716;2024-01-15T12:13:01;18.60;74.10
47773;DHT22;33534;51.028;13.716;2024-01-15T12:15:30;18.60;74.50
47773;DHT22;33534;51.028;13.716;2024-01-15T12:18:00;18.60;74.60
47773;DHT22;33534;51.028;13.716;2024-01-15T12:20:27;18.60;74.10
47773;DHT22;33534;51.028;13.716;2024-01-15T12:22:54;18.70;74.10
47773;DHT22;33534;51.028;13.716;2024-01-15T12:25:23;18.70;74.20
47773;DHT22;33534;51.028;13.716;2024-01-15T12:27:49;18.70;74.00
47773;DHT22;33534;51.028;13.716;2024-01-15T12:30:15;18.80;73.90
47773;DHT22;33534;51.028;13.716;2024-01-15T12:32:41;18.80;73.80
47773;DHT22;33534;51.028;13.716;2024-01-15T12:35:07;18.80;73.90
47773;DHT22;33534;51.028;13.716;2024-01-15T12:37:36;18.90;74.00
47773;DHT22;33534;51.028;13.716;2024-01-15T12:40:03;18.90;73.80
47773;DHT22;33534;51.028;13.716;2024-01-15T12:42:30;18.90;73.70
47773;DHT22;33534;51.028;13.716;2024-01-15T12:44:56;18.90;74.10
47773;DHT22;33534;51.028;13.716;2024-01-15T12:47:22;19.00;74.00
47773;DHT22;33534;51.028;13.716;2024-01-15T12:49:48;19.00;74.00
47773;DHT22;33534;51.028;13.716;2024-01-15T12:52:15;19.00;74.40
47773;DHT22;33534;51.028;13.716;2024-01-15T12:54:44;19.00;74.20
47773;DHT22;33534;51.028;13.716;2024-01-15T12:57:09;19.00;74.10
47773;DHT22;33534;51.028;13.716;2024-01-15T12:59:35;19.00;74.00
47773;DHT22;33534;51.028;13.716;2024-01-15T13:02:01;19.00;74.10
47773;DHT22;33534;51.028;13.716;2024-01-15T13:04:26;19.00;74.10
47773;DHT22;33534;51.028;13.716;2024-01-15T13:06:52;19.00;74.10
47773;DHT22;33534;51.028;13.716;2024-01-15T13:09:18;18.90;74.10
47773;DHT22;33534;51.028;13.716;2024-01-15T13:11:45;18.90;74.10
47773;DHT22;33534;51.028;13.716;2024-01-15T13:14:11;18.90;74.10
47773;DHT22;33534;51.028;13.716;2024-01-15T13:16:36;18.90;74.10
47773;DHT22;33534;51.028;13.716;2024-01-15T13:19:02;18.90;74.00
47773;DHT22;33534;51.028;13.716;2024-01-15T13:21:29;18.90;74.20
47773;DHT22;33534;51.028;13.716;2024-01-15T13:23:55;18.80;74.10
47773;DHT22;33534;51.028;13.716;2024-01-15T13:26:21;18.80;73.90
47773;DHT22;33534;51.028;13.716;2024-01-15T13:28:47;18.80;73.90
47773;DHT22;33534;51.028;13.716;2024-01-15T13:31:12;18.80;73.80
47773;DHT22;33534;51.028;13.716;2024-01-15T13:33:38;18.70;73.80
47773;DHT22;33534;51.028;13.716;2024-01-15T13:36:05;18.70;73.70
47773;DHT22;33534;51.028;13.716;2024-01-15T13:38:34;18.70;73.70
47773;DHT22;33534;51.028;13.716;2024-01-15T13:41:02;18.70;73.70
47773;DHT22;33534;51.028;13.716;2024-01-15T13:43:28;18.70;73.90
47773;DHT22;33534;51.028;13.716;2024-01-15T13:45:54;18.70;73.80
47773;DHT22;33534;51.028;13.716;2024-01-15T13:48:20;18.70;73.70
47773;DHT22;33534;51.028;13.716;2024-01-15T13:50:45;18.70;73.70
47773;DHT22;33534;51.028;13.716;2024-01-15T13:53:11;18.60;73.60
47773;DHT22;33534;51.028;13.716;2024-01-15T13:55:37;18.60;73.60
47773;DHT22;33534;51.028;13.716;2024-01-15T13:58:02;18.60;73.60
47773;DHT22;33534;51.028;13.716;2024-01-15T14:00:31;18.60;73.60
47773;DHT22;33534;51.028;13.716;2024-01-15T14:02:57;18.60;73.50
47773;DHT22;33534;51.028;13.716;2024-01-15T14:05:23;18.60;73.50
47773;DHT22;33534;51.028;13.716;2024-01-15T14:07:49;18.60;73.50
47773;DHT22;33534;51.028;13.716;2024-01-15T14:10:15;18.60;73.50
47773;DHT22;33534;51.028;13.716;2024-01-15T14:12:40;18.50;73.50
47773;DHT22;33534;51.028;13.716;2024-01-15T14:15:07;18.50;73.60
47773;DHT22;33534;51.028;13.716;2024-01-15T14:17:32;18.60;74.70
47773;DHT22;33534;51.028;13.716;2024-01-15T14:19:58;18.70;74.70
47773;DHT22;33534;51.028;13.716;2024-01-15T14:22:24;18.70;74.70
47773;DHT22;33534;51.028;13.716;2024-01-15T14:24:50;18.70;74.60
47773;DHT22;33534;51.028;13.716;2024-01-15T14:27:16;18.80;74.60
47773;DHT22;33534;51.028;13.716;2024-01-15T14:29:42;18.80;74.50
47773;DHT22;33534;51.028;13.716;2024-01-15T14:32:07;18.80;74.50
47773;DHT22;33534;51.028;13.716;2024-01-15T14:34:33;18.90;74.50
47773;DHT22;33534;51.028;13.716;2024-01-15T14:37:01;18.90;74.50
47773;DHT22;33534;51.028;13.716;2024-01-15T14:39:27;18.80;74.50
47773;DHT22;33534;51.028;13.716;2024-01-15T14:41:52;18.80;74.50
47773;DHT22;33534;51.028;13.716;2024-01-15T14:44:18;18.80;74.50
47773;DHT22;33534;51.028;13.716;2024-01-15T14:46:43;18.80;74.60
47773;DHT22;33534;51.028;13.716;2024-01-15T14:49:09;18.80;74.60
47773;DHT22;33534;51.028;13.716;2024-01-15T14:51:38;18.80;74.60
47773;DHT22;33534;51.028;13.716;2024-01-15T14:54:03;18.70;74.70
47773;DHT22;33534;51.028;13.716;2024-01-15T14:56:32;18.70;74.70
47773;DHT22;33534;51.028;13.716;2024-01-15T14:58:58;18.70;74.70
47773;DHT22;33534;51.028;13.716;2024-01-15T15:01:23;18.70;74.60
47773;DHT22;33534;51.028;13.716;2024-01-15T15:03:50;18.70;74.60
47773;DHT22;33534;51.028;13.716;2024-01-15T15:08:58;18.70;74.60
47773;DHT22;33534;51.028;13.716;2024-01-15T15:11:30;18.60;74.50
47773;DHT22;33534;51.028;13.716;2024-01-15T15:13:59;18.70;74.50
47773;DHT22;33534;51.028;13.716;2024-01-15T15:16:32;18.70;74.60
47773;DHT22;33534;51.028;13.716;2024-01-15T15:18:58;18.70;74.50
47773;DHT22;33534;51.028;13.716;2024-01-15T15:21:34;18.70;74.60
47773;DHT22;33534;51.028;13.716;2024-01-15T15:24:03;18.60;74.60
47773;DHT22;33534;51.028;13.716;2024-01-15T15:26:29;18.60;74.60
47773;DHT22;33534;51.028;13.716;2024-01-15T15:28:54;18.60;74.60
47773;DHT22;33534;51.028;13.716;2024-01-15T15:31:20;18.60;74.60
47773;DHT22;33534;51.028;13.716;2024-01-15T15:33:46;18.70;74.80
47773;DHT22;33534;51.028;13.716;2024-01-15T15:36:11;18.70;74.70
47773;DHT22;33534;51.028;13.716;2024-01-15T15:38:37;18.70;74.70